sensor_id;sensor_type;location;lat;lon;timestamp;P1;durP1;ratioP1;P2;durP2;ratioP2
78410;SDS011;67706;51.074;-1.796;2024-01-30T00:00:06;1.35;;;0.30;;
78410;SDS011;67706;51.074;-1.796;2024-01-30T00:02:34;2.58;;;0.35;;
78410;SDS011;67706;51.074;-1.796;2024-01-30T00:05:01;0.93;;;0.20;;
78410;SDS011;67706;51.074;-1.796;2024-01-30T00:07:28;0.43;;;0.22;;
78410;SDS011;67706;51.074;-1.796;2024-01-30T00:09:55;0.20;;;0.00;;
78410;SDS011;67706;51.074;-1.796;2024-01-30T00:12:22;2.42;;;0.32;;
78410;SDS011;67706;51.074;-1.796;2024-01-30T00:14:50;0.95;;;0.20;;
78410;SDS011;67706;51.074;-1.796;2024-01-30T00:17:16;3.13;;;0.40;;
78410;SDS011;67706;51.074;-1.796;2024-01-30T00:19:44;0.30;;;0.30;;
78410;SDS011;67706;51.074;-1.796;2024-01-30T00:22:10;1.45;;;0.40;;
78410;SDS011;67706;51.074;-1.796;2024-01-30T00:24:37;3.58;;;0.50;;
78410;SDS011;67706;51.074;-1.796;2024-01-30T00:27:04;0.90;;;0.40;;
78410;SDS011;67706;51.074;-1.796;2024-01-30T00:29:31;2.70;;;0.63;;
78410;SDS011;67706;51.074;-1.796;2024-01-30T00:32:00;1.42;;;0.28;;
78410;SDS011;67706;51.074;-1.796;2024-01-30T00:34:26;0.80;;;0.40;;
78410;SDS011;67706;51.074;-1.796;2024-01-30T00:36:53;0.90;;;0.28;;
78410;SDS011;67706;51.074;-1.796;2024-01-30T00:39:20;0.95;;;0.25;;
78410;SDS011;67706;51.074;-1.796;2024-01-30T00:41:46;0.82;;;0.20;;
78410;SDS011;67706;51.074;-1.796;2024-01-30T00:44:13;2.58;;;0.63;;
78410;SDS011;67706;51.074;-1.796;2024-01-30T00:46:40;3.42;;;0.50;;
78410;SDS011;67706;51.074;-1.796;2024-01-30T00:49:08;4.13;;;0.50;;
78410;SDS011;67706;51.074;-1.796;2024-01-30T00:51:34;2.13;;;0.30;;
78410;SDS011;67706;51.074;-1.796;2024-01-30T00:54:01;3.15;;;0.57;;
78410;SDS011;67706;51.074;-1.796;2024-01-30T00:56:28;0.77;;;0.30;;
78410;SDS011;67706;51.074;-1.796;2024-01-30T00:58:55;2.90;;;0.70;;
78410;SDS011;67706;51.074;-1.796;2024-01-30T01:01:22;1.95;;;0.85;;
78410;SDS011;67706;51.074;-1.796;2024-01-30T01:03:49;0.93;;;0.25;;
78410;SDS011;67706;51.074;-1.796;2024-01-30T01:06:17;1.42;;;0.40;;
78410;SDS011;67706;51.074;-1.796;2024-01-30T01:08:43;0.82;;;0.40;;
78410;SDS011;67706;51.074;-1.796;2024-01-30T01:11:10;3.85;;;0.82;;
78410;SDS011;67706;51.074;-1.796;2024-01-30T01:13:37;5.18;;;0.60;;
78410;SDS011;67706;51.074;-1.796;2024-01-30T01:16:03;2.55;;;0.50;;
78410;SDS011;67706;51.074;-1.796;2024-01-30T01:18:30;2.13;;;0.68;;
78410;SDS011;67706;51.074;-1.796;2024-01-30T01:20:57;1.58;;;0.60;;
78410;SDS011;67706;51.074;-1.796;2024-01-30T01:23:25;1.40;;;0.47;;
78410;SDS011;67706;51.074;-1.796;2024-01-30T01:25:52;2.05;;;0.80;;
78410;SDS011;67706;51.074;-1.796;2024-01-30T01:28:19;1.70;;;0.57;;
78410;SDS011;67706;51.074;-1.796;2024-01-30T01:30:45;3.25;;;0.50;;
78410;SDS011;67706;51.074;-1.796;2024-01-30T01:33:12;3.42;;;0.77;;
78410;SDS011;67706;51.074;-1.796;2024-01-30T01:35:39;2.80;;;0.77;;
78410;SDS011;67706;51.074;-1.796;2024-01-30T01:38:06;1.75;;;0.50;;
78410;SDS011;67706;51.074;-1.796;2024-01-30T01:40:34;1.65;;;0.50;;
78410;SDS011;67706;51.074;-1.796;2024-01-30T01:43:02;0.98;;;0.60;;
78410;SDS011;67706;51.074;-1.796;2024-01-30T01:45:30;1.45;;;0.50;;
78410;SDS011;67706;51.074;-1.796;2024-01-30T01:47:56;3.85;;;0.50;;
78410;SDS011;67706;51.074;-1.796;2024-01-30T01:50:23;0.60;;;0.40;;
78410;SDS011;67706;51.074;-1.796;2024-01-30T01:52:51;2.10;;;0.50;;
78410;SDS011;67706;51.074;-1.796;2024-01-30T01:55:20;2.55;;;0.70;;
78410;SDS011;67706;51.074;-1.796;2024-01-30T01:57:51;2.10;;;0.55;;
78410;SDS011;67706;51.074;-1.796;2024-01-30T02:00:19;7.00;;;0.90;;
78410;SDS011;67706;51.074;-1.796;2024-01-30T02:02:46;1.50;;;0.68;;
78410;SDS011;67706;51.074;-1.796;2024-01-30T02:05:13;1.20;;;0.50;;
78410;SDS011;67706;51.074;-1.796;2024-01-30T02:07:40;1.63;;;0.60;;
78410;SDS011;67706;51.074;-1.796;2024-01-30T02:10:07;2.03;;;0.57;;
78410;SDS011;67706;51.074;-1.796;2024-01-30T02:12:34;1.30;;;0.50;;
78410;SDS011;67706;51.074;-1.796;2024-01-30T02:15:03;3.13;;;1.05;;
78410;SDS011;67706;51.074;-1.796;2024-01-30T02:17:32;0.47;;;0.25;;
78410;SDS011;67706;51.074;-1.796;2024-01-30T02:19:59;0.95;;;0.22;;
78410;SDS011;67706;51.074;-1.796;2024-01-30T02:22:27;0.40;;;0.32;;
78410;SDS011;67706;51.074;-1.796;2024-01-30T02:24:54;1.95;;;0.30;;
78410;SDS011;67706;51.074;-1.796;2024-01-30T02:27:21;0.40;;;0.20;;
78410;SDS011;67706;51.074;-1.796;2024-01-30T02:29:47;1.27;;;0.40;;
78410;SDS011;67706;51.074;-1.796;2024-01-30T02:32:14;0.30;;;0.20;;
78410;SDS011;67706;51.074;-1.796;2024-01-30T02:34:40;0.08;;;0.08;;
78410;SDS011;67706;51.074;-1.796;2024-01-30T02:37:07;0.35;;;0.10;;
78410;SDS011;67706;51.074;-1.796;2024-01-30T02:39:34;0.95;;;0.30;;
78410;SDS011;67706;51.074;-1.796;2024-01-30T02:42:01;0.20;;;0.10;;
78410;SDS011;67706;51.074;-1.796;2024-01-30T02:44:27;0.13;;;0.10;;
78410;SDS011;67706;51.074;-1.796;2024-01-30T02:46:54;0.13;;;0.10;;
78410;SDS011;67706;51.074;-1.796;2024-01-30T02:49:21;0.30;;;0.20;;
78410;SDS011;67706;51.074;-1.796;2024-01-30T02:51:47;0.20;;;0.20;;
78410;SDS011;67706;51.074;-1.796;2024-01-30T02:54:14;0.30;;;0.10;;
78410;SDS011;67706;51.074;-1.796;2024-01-30T02:56:42;0.10;;;0.10;;
78410;SDS011;67706;51.074;-1.796;2024-01-30T02:59:09;0.03;;;0.00;;
78410;SDS011;67706;51.074;-1.796;2024-01-30T03:01:42;0.30;;;0.20;;
78410;SDS011;67706;51.074;-1.796;2024-01-30T03:04:09;0.22;;;0.20;;
78410;SDS011;67706;51.074;-1.796;2024-01-30T03:06:35;0.10;;;0.10;;
78410;SDS011;67706;51.074;-1.796;2024-01-30T03:09:02;0.35;;;0.15;;
78410;SDS011;67706;51.074;-1.796;2024-01-30T03:11:29;0.57;;;0.55;;
78410;SDS011;67706;51.074;-1.796;2024-01-30T03:13:57;0.45;;;0.20;;
78410;SDS011;67706;51.074;-1.796;2024-01-30T03:16:24;0.82;;;0.30;;
78410;SDS011;67706;51.074;-1.796;2024-01-30T03:18:51;0.35;;;0.30;;
78410;SDS011;67706;51.074;-1.796;2024-01-30T03:21:17;2.08;;;0.38;;
78410;SDS011;67706;51.074;-1.796;2024-01-30T03:23:44;0.90;;;0.35;;
78410;SDS011;67706;51.074;-1.796;2024-01-30T03:26:11;0.10;;;0.10;;
78410;SDS011;67706;51.074;-1.796;2024-01-30T03:28:37;2.50;;;0.47;;
78410;SDS011;67706;51.074;-1.796;2024-01-30T03:33:32;0.40;;;0.10;;
78410;SDS011;67706;51.074;-1.796;2024-01-30T03:38:28;2.63;;;0.55;;
78410;SDS011;67706;51.074;-1.796;2024-01-30T03:40:57;4.28;;;0.43;;
78410;SDS011;67706;51.074;-1.796;2024-01-30T03:43:24;1.55;;;0.30;;
78410;SDS011;67706;51.074;-1.796;2024-01-30T03:45:51;3.70;;;0.50;;
78410;SDS011;67706;51.074;-1.796;2024-01-30T03:48:19;1.38;;;0.30;;
78410;SDS011;67706;51.074;-1.796;2024-01-30T03:50:47;0.93;;;0.30;;
78410;SDS011;67706;51.074;-1.796;2024-01-30T03:53:13;0.75;;;0.35;;
78410;SDS011;67706;51.074;-1.796;2024-01-30T03:55:40;0.40;;;0.10;;
78410;SDS011;67706;51.074;-1.796;2024-01-30T03:58:07;0.17;;;0.15;;
78410;SDS011;67706;51.074;-1.796;2024-01-30T04:00:33;1.35;;;0.22;;
78410;SDS011;67706;51.074;-1.796;2024-01-30T04:03:00;1.33;;;0.20;;
78410;SDS011;67706;51.074;-1.796;2024-01-30T04:05:28;0.73;;;0.20;;
78410;SDS011;67706;51.074;-1.796;2024-01-30T04:07:55;2.97;;;0.82;;
78410;SDS011;67706;51.074;-1.796;2024-01-30T04:10:23;2.70;;;0.50;;
78410;SDS011;67706;51.074;-1.796;2024-01-30T04:12:49;0.40;;;0.25;;
78410;SDS011;67706;51.074;-1.796;2024-01-30T04:15:16;0.90;;;0.30;;
78410;SDS011;67706;51.074;-1.796;2024-01-30T04:17:42;0.57;;;0.20;;
78410;SDS011;67706;51.074;-1.796;2024-01-30T04:20:13;1.70;;;0.20;;
78410;SDS011;67706;51.074;-1.796;2024-01-30T04:22:42;2.42;;;0.40;;
78410;SDS011;67706;51.074;-1.796;2024-01-30T04:25:09;0.70;;;0.50;;
78410;SDS011;67706;51.074;-1.796;2024-01-30T04:27:35;1.00;;;0.30;;
78410;SDS011;67706;51.074;-1.796;2024-01-30T04:30:02;0.30;;;0.10;;
78410;SDS011;67706;51.074;-1.796;2024-01-30T04:32:30;1.08;;;0.20;;
78410;SDS011;67706;51.074;-1.796;2024-01-30T04:34:56;0.55;;;0.15;;
78410;SDS011;67706;51.074;-1.796;2024-01-30T04:37:23;2.47;;;0.40;;
78410;SDS011;67706;51.074;-1.796;2024-01-30T04:39:51;0.88;;;0.00;;
78410;SDS011;67706;51.074;-1.796;2024-01-30T04:42:17;4.05;;;0.60;;
78410;SDS011;67706;51.074;-1.796;2024-01-30T04:44:44;0.75;;;0.30;;
78410;SDS011;67706;51.074;-1.796;2024-01-30T04:47:11;0.40;;;0.28;;
78410;SDS011;67706;51.074;-1.796;2024-01-30T04:49:38;0.22;;;0.20;;
78410;SDS011;67706;51.074;-1.796;2024-01-30T04:52:05;0.20;;;0.20;;
78410;SDS011;67706;51.074;-1.796;2024-01-30T04:54:32;1.23;;;0.68;;
78410;SDS011;67706;51.074;-1.796;2024-01-30T04:57:00;1.10;;;0.30;;
78410;SDS011;67706;51.074;-1.796;2024-01-30T04:59:26;0.50;;;0.20;;
78410;SDS011;67706;51.074;-1.796;2024-01-30T05:01:53;0.43;;;0.28;;
78410;SDS011;67706;51.074;-1.796;2024-01-30T05:04:20;1.25;;;0.60;;
78410;SDS011;67706;51.074;-1.796;2024-01-30T05:06:47;1.38;;;0.50;;
78410;SDS011;67706;51.074;-1.796;2024-01-30T05:09:14;2.83;;;1.00;;
78410;SDS011;67706;51.074;-1.796;2024-01-30T05:11:40;1.33;;;0.93;;
78410;SDS011;67706;51.074;-1.796;2024-01-30T05:14:13;3.00;;;0.80;;
78410;SDS011;67706;51.074;-1.796;2024-01-30T05:16:50;1.83;;;0.90;;
78410;SDS011;67706;51.074;-1.796;2024-01-30T05:19:16;2.42;;;0.68;;
78410;SDS011;67706;51.074;-1.796;2024-01-30T05:21:44;2.60;;;0.85;;
78410;SDS011;67706;51.074;-1.796;2024-01-30T05:24:15;3.63;;;1.27;;
78410;SDS011;67706;51.074;-1.796;2024-01-30T05:26:42;3.97;;;1.60;;
78410;SDS011;67706;51.074;-1.796;2024-01-30T05:29:08;1.95;;;0.98;;
78410;SDS011;67706;51.074;-1.796;2024-01-30T05:31:36;2.78;;;1.58;;
78410;SDS011;67706;51.074;-1.796;2024-01-30T05:34:03;4.57;;;1.52;;
78410;SDS011;67706;51.074;-1.796;2024-01-30T05:36:31;3.03;;;1.42;;
78410;SDS011;67706;51.074;-1.796;2024-01-30T05:38:58;3.80;;;1.10;;
78410;SDS011;67706;51.074;-1.796;2024-01-30T05:41:25;2.45;;;1.25;;
78410;SDS011;67706;51.074;-1.796;2024-01-30T05:43:51;1.50;;;0.73;;
78410;SDS011;67706;51.074;-1.796;2024-01-30T05:46:18;3.05;;;0.93;;
78410;SDS011;67706;51.074;-1.796;2024-01-30T05:48:46;1.55;;;0.73;;
78410;SDS011;67706;51.074;-1.796;2024-01-30T05:51:13;6.13;;;1.45;;
78410;SDS011;67706;51.074;-1.796;2024-01-30T05:53:39;0.82;;;0.73;;
78410;SDS011;67706;51.074;-1.796;2024-01-30T05:56:06;1.30;;;0.70;;
78410;SDS011;67706;51.074;-1.796;2024-01-30T05:58:33;3.10;;;1.20;;
78410;SDS011;67706;51.074;-1.796;2024-01-30T06:03:26;5.15;;;1.85;;
78410;SDS011;67706;51.074;-1.796;2024-01-30T06:05:54;3.60;;;1.30;;
78410;SDS011;67706;51.074;-1.796;2024-01-30T06:08:21;8.40;;;2.00;;
78410;SDS011;67706;51.074;-1.796;2024-01-30T06:13:14;3.85;;;1.48;;
78410;SDS011;67706;51.074;-1.796;2024-01-30T06:15:41;2.72;;;1.10;;
78410;SDS011;67706;51.074;-1.796;2024-01-30T06:18:08;2.38;;;1.58;;
78410;SDS011;67706;51.074;-1.796;2024-01-30T06:20:34;2.35;;;1.17;;
78410;SDS011;67706;51.074;-1.796;2024-01-30T06:23:03;2.83;;;1.17;;
78410;SDS011;67706;51.074;-1.796;2024-01-30T06:25:30;3.53;;;1.60;;
78410;SDS011;67706;51.074;-1.796;2024-01-30T06:27:56;1.73;;;0.70;;
78410;SDS011;67706;51.074;-1.796;2024-01-30T06:32:49;2.00;;;1.13;;
78410;SDS011;67706;51.074;-1.796;2024-01-30T06:35:16;4.45;;;1.83;;
78410;SDS011;67706;51.074;-1.796;2024-01-30T06:37:43;6.63;;;1.85;;
78410;SDS011;67706;51.074;-1.796;2024-01-30T06:40:12;5.72;;;2.95;;
78410;SDS011;67706;51.074;-1.796;2024-01-30T06:42:38;4.53;;;2.53;;
78410;SDS011;67706;51.074;-1.796;2024-01-30T06:45:06;9.63;;;3.22;;
78410;SDS011;67706;51.074;-1.796;2024-01-30T06:47:33;4.40;;;1.67;;
78410;SDS011;67706;51.074;-1.796;2024-01-30T06:50:00;7.68;;;2.67;;
78410;SDS011;67706;51.074;-1.796;2024-01-30T06:52:27;8.50;;;3.00;;
78410;SDS011;67706;51.074;-1.796;2024-01-30T06:54:54;10.20;;;2.72;;
78410;SDS011;67706;51.074;-1.796;2024-01-30T06:57:22;8.00;;;2.83;;
78410;SDS011;67706;51.074;-1.796;2024-01-30T06:59:48;13.98;;;7.70;;
78410;SDS011;67706;51.074;-1.796;2024-01-30T07:04:42;9.60;;;3.25;;
78410;SDS011;67706;51.074;-1.796;2024-01-30T07:07:08;2.50;;;1.05;;
78410;SDS011;67706;51.074;-1.796;2024-01-30T07:09:37;6.40;;;2.33;;
78410;SDS011;67706;51.074;-1.796;2024-01-30T07:12:05;3.70;;;2.40;;
78410;SDS011;67706;51.074;-1.796;2024-01-30T07:14:33;6.38;;;2.78;;
78410;SDS011;67706;51.074;-1.796;2024-01-30T07:17:00;1.90;;;0.93;;
78410;SDS011;67706;51.074;-1.796;2024-01-30T07:19:27;11.05;;;3.58;;
78410;SDS011;67706;51.074;-1.796;2024-01-30T07:21:53;4.15;;;1.95;;
78410;SDS011;67706;51.074;-1.796;2024-01-30T07:24:20;4.20;;;1.60;;
78410;SDS011;67706;51.074;-1.796;2024-01-30T07:26:47;6.53;;;2.65;;
78410;SDS011;67706;51.074;-1.796;2024-01-30T07:29:13;7.20;;;2.67;;
78410;SDS011;67706;51.074;-1.796;2024-01-30T07:31:41;8.77;;;2.80;;
78410;SDS011;67706;51.074;-1.796;2024-01-30T07:34:08;12.20;;;3.25;;
78410;SDS011;67706;51.074;-1.796;2024-01-30T07:36:35;9.52;;;2.78;;
78410;SDS011;67706;51.074;-1.796;2024-01-30T07:39:02;10.35;;;3.28;;
78410;SDS011;67706;51.074;-1.796;2024-01-30T07:41:28;8.52;;;2.50;;
78410;SDS011;67706;51.074;-1.796;2024-01-30T07:43:55;9.35;;;2.92;;
78410;SDS011;67706;51.074;-1.796;2024-01-30T07:46:22;4.68;;;1.75;;
78410;SDS011;67706;51.074;-1.796;2024-01-30T07:48:52;13.65;;;2.63;;
78410;SDS011;67706;51.074;-1.796;2024-01-30T07:51:20;7.60;;;2.13;;
78410;SDS011;67706;51.074;-1.796;2024-01-30T07:56:13;7.45;;;1.90;;
78410;SDS011;67706;51.074;-1.796;2024-01-30T07:58:41;6.82;;;2.33;;
78410;SDS011;67706;51.074;-1.796;2024-01-30T08:01:07;5.15;;;2.55;;
78410;SDS011;67706;51.074;-1.796;2024-01-30T08:03:34;12.95;;;4.22;;
78410;SDS011;67706;51.074;-1.796;2024-01-30T08:06:03;8.55;;;2.53;;
78410;SDS011;67706;51.074;-1.796;2024-01-30T08:08:30;6.97;;;2.10;;
78410;SDS011;67706;51.074;-1.796;2024-01-30T08:10:57;9.90;;;4.10;;
78410;SDS011;67706;51.074;-1.796;2024-01-30T08:13:23;6.47;;;2.20;;
78410;SDS011;67706;51.074;-1.796;2024-01-30T08:15:50;8.60;;;3.25;;
78410;SDS011;67706;51.074;-1.796;2024-01-30T08:18:17;7.95;;;2.88;;
78410;SDS011;67706;51.074;-1.796;2024-01-30T08:20:43;14.65;;;2.63;;
78410;SDS011;67706;51.074;-1.796;2024-01-30T08:23:12;6.35;;;2.60;;
78410;SDS011;67706;51.074;-1.796;2024-01-30T08:25:52;7.13;;;2.65;;
78410;SDS011;67706;51.074;-1.796;2024-01-30T08:28:19;10.13;;;3.03;;
78410;SDS011;67706;51.074;-1.796;2024-01-30T08:30:46;3.65;;;1.27;;
78410;SDS011;67706;51.074;-1.796;2024-01-30T08:33:12;7.95;;;2.17;;
78410;SDS011;67706;51.074;-1.796;2024-01-30T08:35:39;7.13;;;2.75;;
78410;SDS011;67706;51.074;-1.796;2024-01-30T08:38:06;9.63;;;2.22;;
78410;SDS011;67706;51.074;-1.796;2024-01-30T08:40:34;5.55;;;2.22;;
78410;SDS011;67706;51.074;-1.796;2024-01-30T08:43:01;6.32;;;2.65;;
78410;SDS011;67706;51.074;-1.796;2024-01-30T08:45:29;6.35;;;2.08;;
78410;SDS011;67706;51.074;-1.796;2024-01-30T08:47:55;6.75;;;2.00;;
78410;SDS011;67706;51.074;-1.796;2024-01-30T08:50:22;9.70;;;2.47;;
78410;SDS011;67706;51.074;-1.796;2024-01-30T08:52:49;1.52;;;1.30;;
78410;SDS011;67706;51.074;-1.796;2024-01-30T08:55:15;1.55;;;0.82;;
78410;SDS011;67706;51.074;-1.796;2024-01-30T08:57:44;5.97;;;1.65;;
78410;SDS011;67706;51.074;-1.796;2024-01-30T09:00:11;2.50;;;1.40;;
78410;SDS011;67706;51.074;-1.796;2024-01-30T09:02:38;6.47;;;2.08;;
78410;SDS011;67706;51.074;-1.796;2024-01-30T09:05:05;4.32;;;1.50;;
78410;SDS011;67706;51.074;-1.796;2024-01-30T09:07:32;4.90;;;0.98;;
78410;SDS011;67706;51.074;-1.796;2024-01-30T09:09:59;5.38;;;1.55;;
78410;SDS011;67706;51.074;-1.796;2024-01-30T09:12:26;4.13;;;1.52;;
78410;SDS011;67706;51.074;-1.796;2024-01-30T09:14:54;1.40;;;0.93;;
78410;SDS011;67706;51.074;-1.796;2024-01-30T09:17:21;11.52;;;1.60;;
78410;SDS011;67706;51.074;-1.796;2024-01-30T09:19:48;11.20;;;1.60;;
78410;SDS011;67706;51.074;-1.796;2024-01-30T09:22:14;5.68;;;1.98;;
78410;SDS011;67706;51.074;-1.796;2024-01-30T09:24:41;5.90;;;1.38;;
78410;SDS011;67706;51.074;-1.796;2024-01-30T09:27:08;4.15;;;1.13;;
78410;SDS011;67706;51.074;-1.796;2024-01-30T09:29:34;9.35;;;1.98;;
78410;SDS011;67706;51.074;-1.796;2024-01-30T09:34:30;6.82;;;1.77;;
78410;SDS011;67706;51.074;-1.796;2024-01-30T09:36:56;11.50;;;1.98;;
78410;SDS011;67706;51.074;-1.796;2024-01-30T09:41:51;6.03;;;1.33;;
78410;SDS011;67706;51.074;-1.796;2024-01-30T09:44:27;6.60;;;1.80;;
78410;SDS011;67706;51.074;-1.796;2024-01-30T09:46:55;7.28;;;1.55;;
78410;SDS011;67706;51.074;-1.796;2024-01-30T09:49:25;7.72;;;2.22;;
78410;SDS011;67706;51.074;-1.796;2024-01-30T09:51:52;5.47;;;2.20;;
78410;SDS011;67706;51.074;-1.796;2024-01-30T09:54:20;2.90;;;1.23;;
78410;SDS011;67706;51.074;-1.796;2024-01-30T09:56:47;5.75;;;1.77;;
78410;SDS011;67706;51.074;-1.796;2024-01-30T09:59:14;6.25;;;1.95;;
78410;SDS011;67706;51.074;-1.796;2024-01-30T10:01:41;3.15;;;1.17;;
78410;SDS011;67706;51.074;-1.796;2024-01-30T10:04:09;2.00;;;1.27;;
78410;SDS011;67706;51.074;-1.796;2024-01-30T10:06:37;9.23;;;2.88;;
78410;SDS011;67706;51.074;-1.796;2024-01-30T10:09:04;7.70;;;1.65;;
78410;SDS011;67706;51.074;-1.796;2024-01-30T10:11:31;10.90;;;2.28;;
78410;SDS011;67706;51.074;-1.796;2024-01-30T10:13:57;6.00;;;1.50;;
78410;SDS011;67706;51.074;-1.796;2024-01-30T10:16:24;4.03;;;1.27;;
78410;SDS011;67706;51.074;-1.796;2024-01-30T10:18:51;4.30;;;1.38;;
78410;SDS011;67706;51.074;-1.796;2024-01-30T10:21:17;8.68;;;1.27;;
78410;SDS011;67706;51.074;-1.796;2024-01-30T10:23:46;6.63;;;1.27;;
78410;SDS011;67706;51.074;-1.796;2024-01-30T10:26:12;6.40;;;1.70;;
78410;SDS011;67706;51.074;-1.796;2024-01-30T10:28:39;10.70;;;1.70;;
78410;SDS011;67706;51.074;-1.796;2024-01-30T10:31:06;0.77;;;0.77;;
78410;SDS011;67706;51.074;-1.796;2024-01-30T10:33:32;5.38;;;1.92;;
78410;SDS011;67706;51.074;-1.796;2024-01-30T10:36:00;8.18;;;2.05;;
78410;SDS011;67706;51.074;-1.796;2024-01-30T10:38:28;7.55;;;1.80;;
78410;SDS011;67706;51.074;-1.796;2024-01-30T10:40:58;7.43;;;2.50;;
78410;SDS011;67706;51.074;-1.796;2024-01-30T10:43:28;3.70;;;1.25;;
78410;SDS011;67706;51.074;-1.796;2024-01-30T10:45:57;7.70;;;1.35;;
78410;SDS011;67706;51.074;-1.796;2024-01-30T10:48:32;5.45;;;2.03;;
78410;SDS011;67706;51.074;-1.796;2024-01-30T10:51:05;6.20;;;1.52;;
78410;SDS011;67706;51.074;-1.796;2024-01-30T10:53:32;5.35;;;1.33;;
78410;SDS011;67706;51.074;-1.796;2024-01-30T10:56:02;6.35;;;1.50;;
78410;SDS011;67706;51.074;-1.796;2024-01-30T10:58:29;7.95;;;2.33;;
78410;SDS011;67706;51.074;-1.796;2024-01-30T11:00:56;2.00;;;1.05;;
78410;SDS011;67706;51.074;-1.796;2024-01-30T11:03:24;4.68;;;1.83;;
78410;SDS011;67706;51.074;-1.796;2024-01-30T11:05:51;6.80;;;1.48;;
78410;SDS011;67706;51.074;-1.796;2024-01-30T11:08:22;6.20;;;1.83;;
78410;SDS011;67706;51.074;-1.796;2024-01-30T11:10:54;2.40;;;1.55;;
78410;SDS011;67706;51.074;-1.796;2024-01-30T11:13:23;6.78;;;1.70;;
78410;SDS011;67706;51.074;-1.796;2024-01-30T11:15:54;7.43;;;1.58;;
78410;SDS011;67706;51.074;-1.796;2024-01-30T11:18:24;2.42;;;1.10;;
78410;SDS011;67706;51.074;-1.796;2024-01-30T11:20:51;5.65;;;1.80;;
78410;SDS011;67706;51.074;-1.796;2024-01-30T11:23:18;3.13;;;1.17;;
78410;SDS011;67706;51.074;-1.796;2024-01-30T11:25:48;3.10;;;1.58;;
78410;SDS011;67706;51.074;-1.796;2024-01-30T11:28:15;9.52;;;1.90;;
78410;SDS011;67706;51.074;-1.796;2024-01-30T11:30:43;4.75;;;1.40;;
78410;SDS011;67706;51.074;-1.796;2024-01-30T11:33:12;3.30;;;1.17;;
78410;SDS011;67706;51.074;-1.796;2024-01-30T11:35:40;4.43;;;1.55;;
78410;SDS011;67706;51.074;-1.796;2024-01-30T11:38:08;1.13;;;0.85;;
78410;SDS011;67706;51.074;-1.796;2024-01-30T11:40:36;4.68;;;0.98;;
78410;SDS011;67706;51.074;-1.796;2024-01-30T11:43:04;2.97;;;1.17;;
78410;SDS011;67706;51.074;-1.796;2024-01-30T11:45:32;5.25;;;1.27;;
78410;SDS011;67706;51.074;-1.796;2024-01-30T11:48:00;3.65;;;1.35;;
78410;SDS011;67706;51.074;-1.796;2024-01-30T11:50:28;4.10;;;1.10;;
78410;SDS011;67706;51.074;-1.796;2024-01-30T11:52:55;1.73;;;1.20;;
78410;SDS011;67706;51.074;-1.796;2024-01-30T11:55:23;8.93;;;2.30;;
78410;SDS011;67706;51.074;-1.796;2024-01-30T11:57:50;5.25;;;1.35;;
78410;SDS011;67706;51.074;-1.796;2024-01-30T12:00:17;2.58;;;1.05;;
78410;SDS011;67706;51.074;-1.796;2024-01-30T12:02:48;3.03;;;0.80;;
78410;SDS011;67706;51.074;-1.796;2024-01-30T12:05:18;2.03;;;0.98;;
78410;SDS011;67706;51.074;-1.796;2024-01-30T12:07:45;0.88;;;0.50;;
78410;SDS011;67706;51.074;-1.796;2024-01-30T12:10:12;2.17;;;0.98;;
78410;SDS011;67706;51.074;-1.796;2024-01-30T12:12:40;3.92;;;0.73;;
78410;SDS011;67706;51.074;-1.796;2024-01-30T12:15:09;4.75;;;1.35;;
78410;SDS011;67706;51.074;-1.796;2024-01-30T12:17:36;6.13;;;0.95;;
78410;SDS011;67706;51.074;-1.796;2024-01-30T12:20:03;1.00;;;0.25;;
78410;SDS011;67706;51.074;-1.796;2024-01-30T12:22:33;2.05;;;1.00;;
78410;SDS011;67706;51.074;-1.796;2024-01-30T12:25:02;1.08;;;0.55;;
78410;SDS011;67706;51.074;-1.796;2024-01-30T12:27:30;0.35;;;0.30;;
78410;SDS011;67706;51.074;-1.796;2024-01-30T12:29:57;2.78;;;0.47;;
78410;SDS011;67706;51.074;-1.796;2024-01-30T12:32:24;2.10;;;0.68;;
78410;SDS011;67706;51.074;-1.796;2024-01-30T12:34:50;3.10;;;0.45;;
78410;SDS011;67706;51.074;-1.796;2024-01-30T12:37:20;0.85;;;0.43;;
78410;SDS011;67706;51.074;-1.796;2024-01-30T12:39:51;0.32;;;0.32;;
78410;SDS011;67706;51.074;-1.796;2024-01-30T12:42:19;0.90;;;0.57;;
78410;SDS011;67706;51.074;-1.796;2024-01-30T12:44:47;0.85;;;0.40;;
78410;SDS011;67706;51.074;-1.796;2024-01-30T12:47:14;2.50;;;0.60;;
78410;SDS011;67706;51.074;-1.796;2024-01-30T12:49:42;0.63;;;0.50;;
78410;SDS011;67706;51.074;-1.796;2024-01-30T12:52:09;2.28;;;0.35;;
78410;SDS011;67706;51.074;-1.796;2024-01-30T12:54:36;2.05;;;0.50;;
78410;SDS011;67706;51.074;-1.796;2024-01-30T12:57:04;5.65;;;0.50;;
78410;SDS011;67706;51.074;-1.796;2024-01-30T12:59:31;1.10;;;0.45;;
78410;SDS011;67706;51.074;-1.796;2024-01-30T13:01:59;3.33;;;0.63;;
78410;SDS011;67706;51.074;-1.796;2024-01-30T13:04:27;0.50;;;0.20;;
78410;SDS011;67706;51.074;-1.796;2024-01-30T13:06:54;0.95;;;0.63;;
78410;SDS011;67706;51.074;-1.796;2024-01-30T13:09:20;3.75;;;0.80;;
78410;SDS011;67706;51.074;-1.796;2024-01-30T13:11:47;4.22;;;0.80;;
78410;SDS011;67706;51.074;-1.796;2024-01-30T13:14:16;0.98;;;0.32;;
78410;SDS011;67706;51.074;-1.796;2024-01-30T13:16:43;0.25;;;0.20;;
78410;SDS011;67706;51.074;-1.796;2024-01-30T13:19:10;1.08;;;0.50;;
78410;SDS011;67706;51.074;-1.796;2024-01-30T13:21:36;1.52;;;0.22;;
78410;SDS011;67706;51.074;-1.796;2024-01-30T13:24:04;5.10;;;0.82;;
78410;SDS011;67706;51.074;-1.796;2024-01-30T13:26:31;2.72;;;0.80;;
78410;SDS011;67706;51.074;-1.796;2024-01-30T13:28:58;1.33;;;0.32;;
78410;SDS011;67706;51.074;-1.796;2024-01-30T13:31:26;1.95;;;0.98;;
78410;SDS011;67706;51.074;-1.796;2024-01-30T13:33:53;1.73;;;0.40;;
78410;SDS011;67706;51.074;-1.796;2024-01-30T13:36:20;0.32;;;0.22;;
78410;SDS011;67706;51.074;-1.796;2024-01-30T13:38:47;2.03;;;0.40;;
78410;SDS011;67706;51.074;-1.796;2024-01-30T13:41:14;2.22;;;0.47;;
78410;SDS011;67706;51.074;-1.796;2024-01-30T13:43:41;2.17;;;0.63;;
78410;SDS011;67706;51.074;-1.796;2024-01-30T13:46:09;1.40;;;0.65;;
78410;SDS011;67706;51.074;-1.796;2024-01-30T13:48:37;6.35;;;1.25;;
78410;SDS011;67706;51.074;-1.796;2024-01-30T13:51:04;3.20;;;0.80;;
78410;SDS011;67706;51.074;-1.796;2024-01-30T13:53:31;1.67;;;0.40;;
78410;SDS011;67706;51.074;-1.796;2024-01-30T13:58:24;2.30;;;0.50;;
78410;SDS011;67706;51.074;-1.796;2024-01-30T14:00:52;1.02;;;0.50;;
78410;SDS011;67706;51.074;-1.796;2024-01-30T14:03:19;1.13;;;0.43;;
78410;SDS011;67706;51.074;-1.796;2024-01-30T14:05:47;2.78;;;0.80;;
78410;SDS011;67706;51.074;-1.796;2024-01-30T14:08:14;3.05;;;0.75;;
78410;SDS011;67706;51.074;-1.796;2024-01-30T14:10:41;4.07;;;0.70;;
78410;SDS011;67706;51.074;-1.796;2024-01-30T14:13:08;5.47;;;0.70;;
78410;SDS011;67706;51.074;-1.796;2024-01-30T14:15:36;2.40;;;1.02;;
78410;SDS011;67706;51.074;-1.796;2024-01-30T14:18:03;2.03;;;0.80;;
78410;SDS011;67706;51.074;-1.796;2024-01-30T14:20:30;1.27;;;0.40;;
78410;SDS011;67706;51.074;-1.796;2024-01-30T14:22:58;2.75;;;0.55;;
78410;SDS011;67706;51.074;-1.796;2024-01-30T14:25:25;1.88;;;0.50;;
78410;SDS011;67706;51.074;-1.796;2024-01-30T14:27:52;5.78;;;0.40;;
78410;SDS011;67706;51.074;-1.796;2024-01-30T14:30:18;1.88;;;0.50;;
78410;SDS011;67706;51.074;-1.796;2024-01-30T14:32:45;1.00;;;0.20;;
78410;SDS011;67706;51.074;-1.796;2024-01-30T14:35:13;0.40;;;0.20;;
78410;SDS011;67706;51.074;-1.796;2024-01-30T14:37:39;3.20;;;0.32;;
78410;SDS011;67706;51.074;-1.796;2024-01-30T14:40:08;2.00;;;0.80;;
78410;SDS011;67706;51.074;-1.796;2024-01-30T14:42:35;0.85;;;0.25;;
78410;SDS011;67706;51.074;-1.796;2024-01-30T14:45:02;0.93;;;0.30;;
78410;SDS011;67706;51.074;-1.796;2024-01-30T14:47:30;0.20;;;0.15;;
78410;SDS011;67706;51.074;-1.796;2024-01-30T14:49:57;2.90;;;1.30;;
78410;SDS011;67706;51.074;-1.796;2024-01-30T14:52:23;2.70;;;0.82;;
78410;SDS011;67706;51.074;-1.796;2024-01-30T14:57:18;0.75;;;0.20;;
78410;SDS011;67706;51.074;-1.796;2024-01-30T14:59:45;0.52;;;0.35;;